Aviation Digital Data Service (ADDS)

Output produced by TAFs form (0659 UTC 04 March 2015)
found at http://aviationweather.gov/adds/tafs/
 
KCNY 040532Z 0406/0506 VRB03KT P6SM SCT070 
     FM041200 01005KT P6SM FEW070 
     FM041900 02008G15KT P6SM FEW070 
     FM050200 06005KT P6SM SKC